Airfield :
LOGIN :

Register | Disclaimer

   EN    FR    IT 

 










Legend :    VFR   Marginal VFR   IFR   Intensive IFR   Very Intensive IFR
Visi :
Ceiling :
>= 8 km
>= 3000ft
5 to 8 km
1000 to 3000 ft
1500m to 5 km
500 to 1000 ft
800 to 1500m
200 to 500 ft
< 800m
< 200 ft
Symbols :   Thunderstorms  Fog  Heavy snow  Heavy precipitations  Wind > 20 kt
SIGMETs :     Misc.  Thunderstorms  Icing  Turbulence  Mountain Waves  Volcanic Ashes







- Airport Elevation : 13 ft
- IATA code : GOA


LIMJ - Genoa Cristoforo Colombo

CURRENT METAR :
  • 220820Z 02007G17KT 290V100 9999 SCT030 SCT050 08/M02 Q1004

EXPIRED METARs :
  • 220750Z 02009KT 340V080 9999 SCT030 SCT050 08/M02 Q1004
  • 220720Z 02008KT 330V050 9999 SCT030 SCT050 08/M02 Q1004
  • 220650Z 02008KT 340V080 9999 SCT030 SCT050 08/M02 Q1004
  • 220620Z 36009KT 310V070 9999 SCT030 SCT050 08/M02 Q1004
  • 220550Z 03005KT 350V070 9999 SCT030 SCT050 08/M01 Q1004

TAF TAF LIMJ
Valid from the 22 at 06:00 until the 23 at 06:00 UTC


220500Z 2206/2306 02010KT 9999 SCT030 SCT060
TEMPO 2208/2306 03012G25KT DZ
No reported NOTAMs for that airfield.
1 SIGMET reported for the Milano FIR (LIMM) :
 
Severe turbulence
LIMM SIGMET 2 VALID 220620/220920 LIIP
LIMM MILANO FIR SEV TURB FCST W OF LINE N4654 E00911 - N4333 E01106 FL240/360 STNR NC=



MET'MAP, your aeronautical weather chart ! - Copyright ORBIFLY December 2007 - Disclaimer

ORBIFLY MET'MAP TEAM :

Programming & Development : Alexandra Zaïnal
Concept & Development : Baudouin d'Aumeries
Co-Development & Prog : Marc-Olivier Méhu
Technical & hardware support : Manuel Goepfert

Contact : metmap@orbifly.com




SOURCES & CREDITS :

   NOAA